Time;durP1;ratioP1;P1;durP2;ratioP2;P2;SDS_P1;SDS_P2;PMS_P1;PMS_P2;Temp;Humidity;BMP_temperature;BMP_pressure;BME280_temperature;BME280_humidity;BME280_pressure;Samples;Min_cycle;Max_cycle;Signal;HPM_P1;HPM_P2
2021/07/22 00:00:08;;;;;;;9.68;6.20;;;19.70;99.90;;;;;;4363634;32;20620;-77
2021/07/22 00:02:34;;;;;;;10.13;5.82;;;19.90;99.90;;;;;;4351368;32;20101;-76
2021/07/22 00:05:01;;;;;;;12.80;6.37;;;20.00;99.90;;;;;;4339484;32;20082;-76
2021/07/22 00:07:28;;;;;;;9.18;5.60;;;20.00;99.90;;;;;;4363682;32;20070;-76
2021/07/22 00:09:54;;;;;;;11.70;6.12;;;20.00;99.90;;;;;;4327048;32;20251;-78
2021/07/22 00:12:20;;;;;;;8.98;5.43;;;20.10;99.90;;;;;;4363301;32;20101;-76
2021/07/22 00:14:47;;;;;;;9.80;6.12;;;20.20;99.90;;;;;;4326638;32;20159;-77
2021/07/22 00:17:13;;;;;;;12.50;7.95;;;20.20;99.90;;;;;;4351515;32;20082;-77
2021/07/22 00:19:39;;;;;;;12.63;7.28;;;19.70;99.90;;;;;;4338664;32;20425;-77
2021/07/22 00:22:05;;;;;;;14.45;7.00;;;19.20;99.90;;;;;;4363164;32;20081;-78
2021/07/22 00:24:31;;;;;;;13.32;7.57;;;18.90;99.90;;;;;;4362989;32;20164;-77
2021/07/22 00:26:58;;;;;;;11.95;7.15;;;18.50;99.90;;;;;;4363684;32;20179;-77
2021/07/22 00:29:27;;;;;;;10.00;6.47;;;18.50;99.90;;;;;;4350757;32;20549;-79
2021/07/22 00:31:53;;;;;;;17.52;7.97;;;18.50;99.90;;;;;;4352428;32;20089;-77
2021/07/22 00:34:20;;;;;;;13.93;6.75;;;18.40;99.90;;;;;;4362967;32;20082;-74
2021/07/22 00:36:46;;;;;;;12.60;7.43;;;18.30;99.90;;;;;;4363396;32;20165;-78
2021/07/22 00:39:14;;;;;;;12.52;6.60;;;18.20;99.90;;;;;;4338871;32;20074;-78
2021/07/22 00:41:40;;;;;;;13.40;6.62;;;18.30;99.90;;;;;;4363179;32;20081;-76
2021/07/22 00:44:06;;;;;;;13.68;8.43;;;18.20;99.90;;;;;;4325874;32;20070;-77
2021/07/22 00:46:33;;;;;;;11.60;6.65;;;18.20;99.90;;;;;;4363786;32;20089;-77
2021/07/22 00:48:59;;;;;;;10.82;5.87;;;18.20;99.90;;;;;;4350792;32;20069;-78
2021/07/22 00:51:25;;;;;;;10.70;5.90;;;18.60;99.90;;;;;;4362879;32;20516;-78
2021/07/22 00:53:51;;;;;;;9.57;6.18;;;18.30;99.90;;;;;;4363248;32;20174;-77
2021/07/22 00:56:17;;;;;;;8.20;5.15;;;18.30;99.90;;;;;;4362674;32;20086;-78
2021/07/22 00:58:44;;;;;;;9.40;5.12;;;18.50;99.90;;;;;;4350330;32;20074;-76
2021/07/22 01:01:10;;;;;;;9.38;5.70;;;18.40;99.90;;;;;;4338143;32;20078;-77
2021/07/22 01:03:38;;;;;;;9.27;5.45;;;18.40;99.90;;;;;;4350364;32;20179;-77
2021/07/22 01:06:05;;;;;;;9.77;5.50;;;18.50;99.90;;;;;;4362898;32;20081;-78
2021/07/22 01:08:31;;;;;;;10.30;4.95;;;18.50;99.90;;;;;;4350461;32;20066;-77
2021/07/22 01:10:57;;;;;;;8.75;4.82;;;18.50;99.90;;;;;;4362471;32;20089;-78
2021/07/22 01:13:23;;;;;;;7.10;4.72;;;18.70;99.90;;;;;;4362765;32;20495;-78
2021/07/22 01:15:49;;;;;;;9.75;5.22;;;18.60;99.90;;;;;;4350622;32;20078;-79
2021/07/22 01:18:16;;;;;;;7.75;5.22;;;18.60;99.90;;;;;;4338436;32;20089;-76
2021/07/22 01:20:42;;;;;;;8.82;5.37;;;18.60;99.90;;;;;;4351567;32;20089;-77
2021/07/22 01:23:08;;;;;;;8.00;4.93;;;18.50;99.90;;;;;;4365901;32;20117;-78
2021/07/22 01:25:34;;;;;;;6.87;4.53;;;18.70;99.90;;;;;;4350476;32;20251;-76
2021/07/22 01:28:00;;;;;;;10.10;5.37;;;18.70;99.90;;;;;;4338225;32;20236;-77
2021/07/22 01:30:27;;;;;;;9.18;4.85;;;18.80;99.90;;;;;;4338685;32;20096;-78
2021/07/22 01:32:53;;;;;;;7.12;4.53;;;18.90;99.90;;;;;;4362384;32;20082;-77
2021/07/22 01:35:19;;;;;;;8.25;5.03;;;18.90;99.90;;;;;;4350360;32;20086;-78
2021/07/22 01:37:49;;;;;;;8.68;5.28;;;18.90;99.90;;;;;;4349975;32;20082;-79
2021/07/22 01:40:16;;;;;;;10.82;6.50;;;19.10;99.90;;;;;;4338996;32;20078;-78
2021/07/22 01:42:42;;;;;;;8.27;5.18;;;18.90;99.90;;;;;;4350498;32;20074;-78
2021/07/22 01:45:09;;;;;;;8.38;5.55;;;18.80;99.90;;;;;;4350267;32;20176;-78
2021/07/22 01:47:36;;;;;;;12.65;5.68;;;18.80;99.90;;;;;;4350735;32;20090;-77
2021/07/22 01:50:02;;;;;;;8.77;5.57;;;18.90;99.90;;;;;;4350130;32;20076;-78
2021/07/22 01:52:29;;;;;;;7.75;5.05;;;19.00;99.90;;;;;;4362329;32;20580;-78
2021/07/22 01:54:55;;;;;;;8.63;5.15;;;18.90;99.90;;;;;;4362235;32;20511;-76
2021/07/22 01:57:21;;;;;;;9.10;5.40;;;19.10;99.90;;;;;;4350120;32;20093;-76
2021/07/22 01:59:48;;;;;;;11.85;6.10;;;18.90;99.90;;;;;;4337823;32;20101;-78
2021/07/22 02:02:14;;;;;;;8.63;4.78;;;18.90;99.90;;;;;;4337841;32;20078;-75
2021/07/22 02:04:42;;;;;;;10.73;5.82;;;18.90;99.90;;;;;;4337588;32;20078;-76
2021/07/22 02:07:11;;;;;;;7.87;5.20;;;18.90;99.90;;;;;;4338200;32;20086;-77
2021/07/22 02:09:38;;;;;;;8.30;5.03;;;18.90;99.90;;;;;;4337394;32;20247;-79
2021/07/22 02:12:05;;;;;;;11.23;6.37;;;18.90;99.90;;;;;;4350150;32;20492;-79
2021/07/22 02:14:31;;;;;;;9.80;6.90;;;18.90;99.90;;;;;;4350140;32;20542;-77
2021/07/22 02:16:57;;;;;;;9.98;6.05;;;18.80;99.90;;;;;;4337865;32;20078;-78
2021/07/22 02:19:23;;;;;;;9.40;6.35;;;19.00;99.90;;;;;;4349583;32;20101;-76
2021/07/22 02:21:50;;;;;;;10.90;7.10;;;19.00;99.90;;;;;;4349718;32;20074;-78
2021/07/22 02:24:16;;;;;;;10.88;7.10;;;18.80;99.90;;;;;;4362013;32;20088;-78
2021/07/22 02:26:42;;;;;;;12.15;6.25;;;18.80;99.90;;;;;;4362056;32;20479;-78
2021/07/22 02:29:09;;;;;;;10.40;6.82;;;18.90;99.90;;;;;;4362113;32;20089;-77
2021/07/22 02:31:35;;;;;;;9.57;6.18;;;18.80;99.90;;;;;;4349812;32;20171;-79
2021/07/22 02:34:01;;;;;;;8.38;5.45;;;18.80;99.90;;;;;;4337632;32;20085;-78
2021/07/22 02:36:27;;;;;;;9.35;6.32;;;18.70;99.90;;;;;;4362379;32;20093;-79
2021/07/22 02:38:54;;;;;;;11.25;7.25;;;18.70;99.90;;;;;;4337924;32;20081;-78
2021/07/22 02:41:20;;;;;;;9.88;7.07;;;18.70;99.90;;;;;;4349678;32;20078;-77
2021/07/22 02:44:54;;;;;;;7.97;5.28;;;18.70;99.90;;;;;;3834243;37;20058;-78
2021/07/22 02:47:20;;;;;;;8.13;5.47;;;19.20;99.90;;;;;;4365850;32;20221;-79
2021/07/22 02:49:46;;;;;;;9.02;5.60;;;19.20;99.90;;;;;;4390739;32;20076;-76
2021/07/22 02:52:12;;;;;;;12.35;7.30;;;19.10;99.90;;;;;;4365649;32;20069;-77
2021/07/22 02:54:38;;;;;;;9.80;6.07;;;18.80;99.90;;;;;;4365533;32;20081;-79
2021/07/22 02:57:05;;;;;;;9.32;6.60;;;19.00;99.90;;;;;;4404343;32;20082;-76
2021/07/22 02:59:31;;;;;;;9.93;6.03;;;19.00;99.90;;;;;;4390521;32;20065;-77
2021/07/22 03:01:57;;;;;;;9.82;6.50;;;18.90;99.90;;;;;;4390163;32;20074;-77
2021/07/22 03:04:24;;;;;;;8.35;5.45;;;18.90;99.90;;;;;;4377867;32;20593;-78
2021/07/22 03:06:50;;;;;;;13.38;6.47;;;19.20;99.90;;;;;;4353658;32;20089;-76
2021/07/22 03:09:16;;;;;;;10.07;6.03;;;19.40;99.90;;;;;;4365547;32;20085;-78
2021/07/22 03:11:42;;;;;;;10.18;6.15;;;19.40;99.90;;;;;;4377719;32;20448;-78
2021/07/22 03:14:08;;;;;;;9.10;5.82;;;19.40;99.90;;;;;;4403905;32;20467;-77
2021/07/22 03:16:35;;;;;;;9.77;6.47;;;19.80;99.90;;;;;;4390653;32;20168;-74
2021/07/22 03:19:01;;;;;;;11.45;7.12;;;19.60;99.90;;;;;;4378586;32;20077;-77
2021/07/22 03:21:27;;;;;;;10.55;6.25;;;19.70;99.90;;;;;;4364952;32;20577;-78
2021/07/22 03:23:53;;;;;;;12.75;7.32;;;19.60;99.90;;;;;;4390346;32;20082;-76
2021/07/22 03:26:19;;;;;;;10.45;6.53;;;20.20;99.90;;;;;;4377704;32;20153;-78
2021/07/22 03:28:46;;;;;;;12.45;6.95;;;20.10;99.90;;;;;;4365019;32;20101;-78
2021/07/22 03:31:12;;;;;;;14.68;7.87;;;20.00;99.90;;;;;;4365349;32;20061;-79
2021/07/22 03:33:38;;;;;;;10.95;6.60;;;20.00;99.90;;;;;;4377425;32;20452;-78
2021/07/22 03:36:04;;;;;;;12.10;8.15;;;20.10;99.90;;;;;;4365004;32;20166;-76
2021/07/22 03:38:31;;;;;;;11.98;8.23;;;20.10;99.90;;;;;;4377205;32;20081;-77
2021/07/22 03:40:58;;;;;;;13.20;7.60;;;20.10;99.90;;;;;;4364714;32;20085;-78
2021/07/22 03:43:24;;;;;;;13.18;7.68;;;20.40;99.90;;;;;;4352286;32;20314;-78
2021/07/22 03:45:59;;;;;;;14.32;7.80;;;20.00;99.90;;;;;;4365397;32;20105;-77
2021/07/22 03:48:26;;;;;;;11.05;7.50;;;20.10;99.90;;;;;;4365238;32;20169;-79
2021/07/22 03:50:52;;;;;;;11.15;7.60;;;20.40;99.90;;;;;;4365028;32;20448;-78
2021/07/22 03:53:18;;;;;;;10.40;6.37;;;20.40;99.90;;;;;;4389588;32;20086;-78
2021/07/22 03:55:44;;;;;;;10.63;7.15;;;20.40;99.90;;;;;;4344584;32;20588;-78
2021/07/22 03:58:11;;;;;;;10.57;6.70;;;20.50;99.90;;;;;;4379509;32;20508;-78
2021/07/22 04:00:37;;;;;;;11.27;7.25;;;20.40;99.90;;;;;;4379723;32;20100;-78
2021/07/22 04:03:06;;;;;;;11.00;6.93;;;20.60;99.90;;;;;;4379169;32;20459;-78
2021/07/22 04:05:33;;;;;;;10.35;6.55;;;20.60;99.90;;;;;;4343284;32;20441;-77
2021/07/22 04:07:59;;;;;;;9.85;6.68;;;20.50;99.90;;;;;;4354938;32;20089;-79
2021/07/22 04:10:27;;;;;;;9.63;6.87;;;20.50;99.90;;;;;;4354421;32;20100;-77
2021/07/22 04:13:00;;;;;;;9.63;7.00;;;20.50;99.90;;;;;;4355440;32;20066;-77
2021/07/22 04:15:28;;;;;;;10.38;6.60;;;20.10;99.90;;;;;;4356623;32;20089;-76
2021/07/22 04:17:55;;;;;;;11.95;6.90;;;20.30;99.90;;;;;;4342791;32;20540;-77
2021/07/22 04:20:22;;;;;;;12.32;6.72;;;20.30;99.90;;;;;;4367500;32;20089;-78
2021/07/22 04:22:50;;;;;;;11.45;6.97;;;20.40;99.90;;;;;;4342650;32;20162;-78
2021/07/22 04:25:16;;;;;;;10.02;6.40;;;20.40;99.90;;;;;;4354481;32;20089;-77
2021/07/22 04:27:42;;;;;;;9.20;6.65;;;20.40;99.90;;;;;;4366899;32;20231;-79
2021/07/22 04:30:09;;;;;;;12.82;8.32;;;20.40;99.90;;;;;;4342003;32;20140;-78
2021/07/22 04:32:36;;;;;;;12.85;7.95;;;20.30;99.90;;;;;;4354624;32;20172;-77
2021/07/22 04:35:07;;;;;;;8.63;6.68;;;20.50;99.90;;;;;;4366715;32;20185;-77
2021/07/22 04:37:35;;;;;;;11.38;7.95;;;20.50;99.90;;;;;;4332418;32;20063;-72
2021/07/22 04:40:02;;;;;;;11.73;7.93;;;20.60;99.90;;;;;;4366977;32;20094;-74
2021/07/22 04:42:29;;;;;;;14.82;8.20;;;20.50;99.90;;;;;;4363089;32;20082;-73
2021/07/22 04:44:56;;;;;;;12.02;7.53;;;20.80;99.90;;;;;;4362662;32;20202;-74
2021/07/22 04:47:22;;;;;;;13.48;8.57;;;20.80;99.90;;;;;;4352289;32;20209;-74
2021/07/22 04:49:48;;;;;;;14.07;8.10;;;20.50;99.90;;;;;;4376455;32;20212;-75
2021/07/22 04:52:14;;;;;;;11.12;7.87;;;20.30;99.90;;;;;;4379592;32;20091;-74
2021/07/22 04:54:40;;;;;;;11.68;7.55;;;20.50;99.90;;;;;;4366284;32;20065;-70
2021/07/22 04:57:07;;;;;;;11.05;7.85;;;20.60;99.90;;;;;;4379796;32;20537;-77
2021/07/22 04:59:33;;;;;;;11.63;7.28;;;20.60;99.90;;;;;;4356977;32;20178;-79
2021/07/22 05:01:59;;;;;;;10.70;7.60;;;20.80;99.90;;;;;;4358192;32;20089;-77
2021/07/22 05:04:25;;;;;;;9.43;7.07;;;20.80;99.90;;;;;;4351272;32;20512;-77
2021/07/22 05:06:51;;;;;;;10.85;6.53;;;20.80;99.90;;;;;;4357000;32;20123;-74
2021/07/22 05:09:18;;;;;;;11.93;6.57;;;20.90;99.90;;;;;;4355742;32;20133;-72
2021/07/22 05:11:44;;;;;;;10.00;6.25;;;20.90;99.90;;;;;;4353527;32;20090;-75
2021/07/22 05:14:10;;;;;;;11.70;6.65;;;20.90;99.90;;;;;;4360935;32;20166;-75
2021/07/22 05:16:36;;;;;;;8.80;6.03;;;21.20;99.90;;;;;;4361390;32;20075;-77
2021/07/22 05:19:02;;;;;;;8.07;5.87;;;21.00;99.90;;;;;;4369887;32;20093;-76
2021/07/22 05:21:29;;;;;;;8.93;5.60;;;21.00;99.90;;;;;;4346404;32;20089;-76
2021/07/22 05:23:55;;;;;;;9.60;5.70;;;21.10;99.90;;;;;;4359243;32;20081;-65
2021/07/22 05:26:21;;;;;;;9.32;5.87;;;21.10;99.90;;;;;;4355156;32;20082;-68
2021/07/22 05:28:47;;;;;;;8.38;5.45;;;21.40;99.90;;;;;;4376288;32;20098;-67
2021/07/22 05:31:13;;;;;;;9.40;5.82;;;21.30;99.90;;;;;;4376355;32;20112;-67
2021/07/22 05:33:40;;;;;;;7.37;5.07;;;21.30;99.90;;;;;;4366208;32;20070;-67
2021/07/22 05:36:08;;;;;;;7.53;5.20;;;21.20;99.90;;;;;;4372917;32;20074;-69
2021/07/22 05:38:35;;;;;;;11.73;5.12;;;21.40;99.90;;;;;;4349565;32;20077;-69
2021/07/22 05:41:06;;;;;;;8.52;4.90;;;21.50;99.90;;;;;;4375612;32;20117;-66
2021/07/22 05:43:33;;;;;;;9.52;5.85;;;21.40;99.90;;;;;;4348368;32;20097;-68
2021/07/22 05:45:59;;;;;;;10.18;5.75;;;21.50;99.90;;;;;;4364015;32;20070;-75
2021/07/22 05:48:25;;;;;;;8.23;5.37;;;21.80;99.90;;;;;;4337708;32;20078;-79
2021/07/22 05:50:52;;;;;;;8.10;5.32;;;22.30;99.90;;;;;;4354270;32;20079;-73
2021/07/22 05:53:19;;;;;;;8.80;5.25;;;22.30;99.90;;;;;;4362364;32;20066;-75
2021/07/22 05:55:45;;;;;;;5.80;4.30;;;22.40;99.90;;;;;;4350105;32;20070;-66
2021/07/22 05:58:11;;;;;;;7.10;5.15;;;22.40;99.90;;;;;;4376743;32;20501;-67
2021/07/22 06:00:37;;;;;;;7.07;4.95;;;22.20;99.90;;;;;;4380185;32;20138;-68
2021/07/22 06:03:05;;;;;;;10.05;5.50;;;22.60;99.90;;;;;;4380748;32;20551;-67
2021/07/22 06:05:32;;;;;;;7.15;5.00;;;23.20;99.90;;;;;;4378349;32;20157;-67
2021/07/22 06:08:00;;;;;;;9.52;5.15;;;23.20;99.90;;;;;;4379352;32;20093;-70
2021/07/22 06:10:26;;;;;;;7.30;5.07;;;22.80;99.90;;;;;;4377641;32;20094;-69
2021/07/22 06:12:54;;;;;;;6.85;4.85;;;22.40;99.90;;;;;;4365262;32;20077;-66
2021/07/22 06:15:20;;;;;;;9.88;4.80;;;21.90;99.90;;;;;;4362152;32;20102;-69
2021/07/22 06:17:46;;;;;;;6.72;4.60;;;22.30;99.90;;;;;;4374923;32;20504;-68
2021/07/22 06:20:13;;;;;;;7.70;4.68;;;22.10;99.90;;;;;;4375640;32;20067;-67
2021/07/22 06:22:39;;;;;;;5.45;4.03;;;22.30;99.90;;;;;;4367047;32;20069;-67
2021/07/22 06:25:07;;;;;;;7.12;4.50;;;21.80;99.90;;;;;;4349869;32;20082;-67
2021/07/22 06:27:33;;;;;;;7.72;4.32;;;21.70;99.90;;;;;;4361548;32;20069;-68
2021/07/22 06:30:00;;;;;;;5.53;4.07;;;21.50;99.90;;;;;;4360867;32;20055;-65
2021/07/22 06:32:27;;;;;;;7.12;4.75;;;21.20;99.90;;;;;;4363037;32;20077;-69
2021/07/22 06:34:53;;;;;;;8.57;4.37;;;21.00;99.90;;;;;;4361624;32;20133;-68
2021/07/22 06:37:19;;;;;;;7.28;4.53;;;20.60;99.90;;;;;;4351316;32;20166;-70
2021/07/22 06:39:45;;;;;;;7.47;5.35;;;20.60;99.90;;;;;;4360786;32;20129;-67
2021/07/22 06:42:12;;;;;;;7.20;4.55;;;20.70;99.90;;;;;;4360719;32;20109;-66
2021/07/22 06:44:38;;;;;;;8.35;5.25;;;20.30;99.90;;;;;;4374104;32;20178;-67
2021/07/22 06:47:05;;;;;;;6.43;5.00;;;19.90;99.90;;;;;;4366951;32;20124;-67
2021/07/22 06:49:31;;;;;;;7.45;4.50;;;20.00;99.90;;;;;;4375869;32;20066;-72
2021/07/22 06:52:00;;;;;;;10.07;5.00;;;20.10;99.90;;;;;;4360729;32;20090;-73
2021/07/22 06:54:27;;;;;;;6.85;4.80;;;20.20;99.90;;;;;;4343608;32;20210;-71
2021/07/22 06:56:53;;;;;;;7.15;5.07;;;20.30;99.90;;;;;;4337678;32;20078;-71
2021/07/22 06:59:20;;;;;;;8.35;5.28;;;20.30;99.90;;;;;;4362715;32;20066;-67
2021/07/22 07:01:46;;;;;;;7.97;5.20;;;20.20;99.90;;;;;;4378553;32;20075;-66
2021/07/22 07:04:12;;;;;;;5.53;4.43;;;20.00;99.90;;;;;;4366875;32;20067;-70
2021/07/22 07:06:38;;;;;;;9.55;5.28;;;20.20;99.90;;;;;;4366903;32;20088;-72
2021/07/22 07:09:05;;;;;;;11.00;5.87;;;20.20;99.90;;;;;;4353875;32;20190;-72
2021/07/22 07:11:31;;;;;;;10.80;5.25;;;20.10;99.90;;;;;;4346732;32;20090;-70
2021/07/22 07:13:57;;;;;;;6.35;4.60;;;20.10;99.90;;;;;;4343099;32;20066;-72
2021/07/22 07:16:24;;;;;;;6.70;4.93;;;19.90;99.90;;;;;;4355177;32;20085;-69
2021/07/22 07:18:50;;;;;;;7.22;4.12;;;20.20;99.90;;;;;;4374772;32;20066;-70
2021/07/22 07:21:16;;;;;;;7.68;4.62;;;20.10;99.90;;;;;;4363017;32;20174;-72
2021/07/22 07:23:42;;;;;;;6.90;4.75;;;20.30;99.90;;;;;;4349729;32;20533;-73
2021/07/22 07:26:12;;;;;;;6.87;4.62;;;20.50;99.90;;;;;;4355942;32;20065;-71
2021/07/22 07:28:38;;;;;;;8.18;3.85;;;20.70;99.90;;;;;;4346601;32;20070;-73
2021/07/22 07:31:05;;;;;;;7.62;4.50;;;20.50;99.90;;;;;;4351190;32;20109;-71
2021/07/22 07:33:31;;;;;;;6.70;4.15;;;20.10;99.90;;;;;;4369595;32;20213;-72
2021/07/22 07:35:57;;;;;;;6.22;4.30;;;20.00;99.90;;;;;;4366056;32;20085;-73
2021/07/22 07:38:24;;;;;;;6.57;4.00;;;20.20;99.90;;;;;;4355160;32;20064;-75
2021/07/22 07:40:50;;;;;;;6.20;4.07;;;20.10;99.90;;;;;;4337499;32;20074;-73
2021/07/22 07:43:20;;;;;;;5.90;4.45;;;20.60;99.90;;;;;;4348522;32;20089;-74
2021/07/22 07:45:47;;;;;;;7.57;4.35;;;20.80;99.90;;;;;;4346848;32;20177;-75
2021/07/22 07:50:48;;;;;;;6.70;3.95;;;20.60;99.90;;;;;;3845225;37;20425;-74
2021/07/22 07:53:16;;;;;;;9.15;4.70;;;20.30;99.90;;;;;;4399756;32;20061;-71
2021/07/22 07:55:43;;;;;;;5.97;4.57;;;20.60;99.90;;;;;;4403773;32;20077;-73
2021/07/22 07:58:09;;;;;;;6.85;4.30;;;20.60;99.90;;;;;;4405060;32;20069;-73
2021/07/22 08:00:36;;;;;;;9.93;4.80;;;21.00;99.90;;;;;;4388912;32;20440;-75
2021/07/22 08:03:02;;;;;;;7.22;4.10;;;20.90;99.90;;;;;;4398953;32;20300;-72
2021/07/22 08:05:29;;;;;;;7.60;4.20;;;20.60;99.90;;;;;;4402687;32;20056;-72
2021/07/22 08:07:55;;;;;;;4.70;3.60;;;20.70;99.90;;;;;;4401790;32;20065;-65
2021/07/22 08:10:21;;;;;;;6.80;4.37;;;21.20;99.90;;;;;;4401863;32;20070;-74
2021/07/22 08:12:47;;;;;;;6.60;4.00;;;21.30;99.90;;;;;;4405136;32;20158;-68
2021/07/22 08:15:14;;;;;;;5.72;4.32;;;21.00;99.90;;;;;;4406854;32;20077;-71
2021/07/22 08:17:41;;;;;;;5.45;3.83;;;21.20;99.90;;;;;;4395712;32;20160;-66
2021/07/22 08:20:10;;;;;;;6.03;4.40;;;21.20;99.90;;;;;;4383826;32;20488;-69
2021/07/22 08:22:37;;;;;;;5.43;3.83;;;21.00;99.90;;;;;;4411411;32;20515;-72
2021/07/22 08:25:04;;;;;;;5.50;3.75;;;21.30;99.90;;;;;;4389334;32;20098;-72
2021/07/22 08:27:32;;;;;;;4.97;3.58;;;21.10;99.90;;;;;;4413739;32;20077;-74
2021/07/22 08:29:58;;;;;;;6.28;4.03;;;21.40;99.90;;;;;;4394678;32;20164;-73
2021/07/22 08:32:25;;;;;;;6.93;3.65;;;21.70;99.90;;;;;;4401435;32;20082;-70
2021/07/22 08:34:52;;;;;;;5.30;3.80;;;21.50;99.90;;;;;;4396472;32;20510;-71
2021/07/22 08:37:18;;;;;;;5.22;3.42;;;21.00;99.90;;;;;;4393673;32;20084;-75
2021/07/22 08:39:50;;;;;;;4.45;3.50;;;20.90;99.90;;;;;;4406713;32;20062;-76
2021/07/22 08:42:17;;;;;;;5.20;2.95;;;21.50;99.90;;;;;;4393160;32;20088;-73
2021/07/22 08:44:43;;;;;;;5.40;3.25;;;21.90;99.90;;;;;;4382231;32;20068;-73
2021/07/22 08:47:10;;;;;;;4.90;3.00;;;21.90;99.90;;;;;;4356541;32;20174;-74
2021/07/22 08:49:38;;;;;;;4.60;3.17;;;21.40;99.90;;;;;;4381326;32;20243;-74
2021/07/22 08:52:09;;;;;;;8.65;3.20;;;21.10;99.90;;;;;;4374234;32;20069;-74
2021/07/22 08:54:39;;;;;;;3.85;2.60;;;21.00;99.90;;;;;;4389078;32;20113;-67
2021/07/22 08:57:07;;;;;;;5.05;3.10;;;20.80;99.90;;;;;;4402813;32;20054;-67
2021/07/22 08:59:33;;;;;;;5.93;2.90;;;20.90;99.90;;;;;;4389286;32;20577;-70
2021/07/22 09:02:00;;;;;;;6.00;2.97;;;20.80;99.90;;;;;;4392393;32;20069;-73
2021/07/22 09:04:29;;;;;;;10.43;3.92;;;20.80;99.90;;;;;;4383234;32;20105;-71
2021/07/22 09:06:58;;;;;;;4.10;3.08;;;20.50;99.90;;;;;;4377198;32;20164;-73
2021/07/22 09:09:25;;;;;;;5.80;3.87;;;20.30;99.90;;;;;;4388425;32;20077;-75
2021/07/22 09:12:01;;;;;;;5.45;3.60;;;20.10;99.90;;;;;;4389756;32;20074;-74
2021/07/22 09:14:29;;;;;;;4.12;3.28;;;20.30;99.90;;;;;;4362985;32;20097;-76
2021/07/22 09:16:56;;;;;;;4.65;3.28;;;20.60;99.90;;;;;;4365673;32;20080;-79
2021/07/22 09:19:39;;;;;;;5.10;3.70;;;20.70;99.90;;;;;;4369414;32;20097;-73
2021/07/22 09:22:10;;;;;;;6.03;3.45;;;21.00;99.90;;;;;;4368112;32;20095;-73
2021/07/22 09:24:52;;;;;;;5.25;3.75;;;20.80;99.90;;;;;;4349167;32;20069;-75
2021/07/22 09:27:42;;;;;;;6.37;3.60;;;20.80;99.90;;;;;;4362316;32;20170;-77
2021/07/22 09:30:13;;;;;;;5.53;3.67;;;21.10;99.90;;;;;;4378949;32;20145;-78
2021/07/22 09:32:41;;;;;;;4.95;3.72;;;20.80;99.90;;;;;;4378457;32;20097;-77
2021/07/22 09:35:12;;;;;;;5.40;3.55;;;20.70;99.90;;;;;;4350315;32;20526;-77
2021/07/22 09:37:46;;;;;;;4.45;3.25;;;20.50;99.90;;;;;;4363762;32;20085;-75
2021/07/22 09:40:34;;;;;;;7.18;3.33;;;20.70;99.90;;;;;;4363680;32;20063;-78
2021/07/22 09:43:00;;;;;;;7.22;3.25;;;20.60;99.90;;;;;;4361818;32;20164;-79
2021/07/22 09:45:30;;;;;;;5.00;3.50;;;20.60;99.90;;;;;;4360047;32;20515;-76
2021/07/22 09:48:05;;;;;;;5.45;3.50;;;20.80;99.90;;;;;;4352802;32;20116;-78
2021/07/22 09:50:43;;;;;;;4.85;3.53;;;20.70;99.90;;;;;;4388322;32;20114;-77
2021/07/22 09:53:14;;;;;;;7.20;3.70;;;20.40;99.90;;;;;;4375953;32;20069;-65
2021/07/22 09:55:42;;;;;;;5.15;3.28;;;20.10;99.90;;;;;;4377578;32;20165;-68
2021/07/22 09:58:13;;;;;;;4.05;3.20;;;20.60;99.90;;;;;;4373871;32;20210;-78
2021/07/22 10:00:41;;;;;;;6.00;3.20;;;20.90;99.90;;;;;;4359435;32;20077;-75
2021/07/22 10:03:13;;;;;;;4.93;3.15;;;21.50;99.90;;;;;;4372770;32;20062;-64
2021/07/22 10:06:03;;;;;;;4.32;3.22;;;21.60;99.90;;;;;;4362955;32;20125;-67
2021/07/22 10:08:30;;;;;;;3.42;2.87;;;21.70;99.90;;;;;;4382206;32;20227;-77
2021/07/22 10:10:56;;;;;;;7.57;4.03;;;21.70;99.90;;;;;;4378001;32;20089;-63
2021/07/22 10:13:27;;;;;;;6.32;3.35;;;21.60;99.90;;;;;;4369274;32;20077;-73
2021/07/22 10:15:53;;;;;;;3.58;2.83;;;21.30;99.90;;;;;;4366204;32;20081;-74
2021/07/22 10:18:22;;;;;;;5.60;3.00;;;21.50;99.90;;;;;;4372101;32;20768;-70
2021/07/22 10:20:53;;;;;;;3.83;2.80;;;21.30;99.90;;;;;;4371911;32;20081;-68
2021/07/22 10:23:20;;;;;;;4.22;3.17;;;21.10;99.90;;;;;;4373713;32;20055;-67
2021/07/22 10:25:49;;;;;;;9.13;3.40;;;21.10;99.90;;;;;;4380038;32;20105;-68
2021/07/22 10:28:16;;;;;;;4.82;3.37;;;21.00;99.90;;;;;;4378669;32;20073;-69
2021/07/22 10:30:42;;;;;;;5.93;3.28;;;20.80;99.90;;;;;;4369906;32;20094;-69
2021/07/22 10:33:09;;;;;;;5.45;3.35;;;20.90;99.90;;;;;;4346019;32;20082;-69
2021/07/22 10:35:35;;;;;;;4.93;3.20;;;21.30;99.90;;;;;;4352794;32;20085;-70
2021/07/22 10:38:24;;;;;;;5.50;3.58;;;21.20;99.90;;;;;;4356906;32;20102;-71
2021/07/22 10:40:55;;;;;;;4.72;3.80;;;21.10;99.90;;;;;;4358441;32;20166;-71
2021/07/22 10:43:43;;;;;;;4.60;3.25;;;21.20;99.90;;;;;;4352358;32;20128;-69
2021/07/22 10:46:17;;;;;;;6.30;3.40;;;20.90;99.90;;;;;;4382419;32;20071;-73
2021/07/22 10:51:23;;;;;;;4.85;2.95;;;21.00;99.90;;;;;;3808047;37;20079;-72
2021/07/22 10:53:54;;;;;;;5.18;3.00;;;20.90;99.90;;;;;;4359954;32;20093;-70
2021/07/22 10:56:23;;;;;;;5.72;2.92;;;20.60;99.90;;;;;;4370140;32;20920;-69
2021/07/22 10:58:57;;;;;;;3.33;2.60;;;20.40;99.90;;;;;;4383608;32;20078;-72
2021/07/22 11:01:42;;;;;;;4.07;2.70;;;20.40;99.90;;;;;;4368134;32;20460;-71
2021/07/22 11:04:34;;;;;;;10.00;3.08;;;20.80;99.90;;;;;;4383314;32;20138;-72
2021/07/22 11:07:03;;;;;;;7.10;3.70;;;20.90;99.90;;;;;;4379443;32;20062;-71
2021/07/22 11:09:57;;;;;;;3.83;2.60;;;21.50;99.90;;;;;;4372012;32;20112;-70
2021/07/22 11:12:44;;;;;;;4.05;2.75;;;21.40;99.90;;;;;;4370464;32;20084;-70
2021/07/22 11:15:55;;;;;;;2.97;2.37;;;21.80;99.90;;;;;;4375359;32;20098;-71
2021/07/22 11:18:43;;;;;;;3.20;2.58;;;21.50;99.90;;;;;;4366259;32;20098;-71
2021/07/22 11:21:18;;;;;;;3.78;2.60;;;21.80;99.90;;;;;;4371542;32;20085;-72
2021/07/22 11:24:19;;;;;;;6.12;2.92;;;21.70;99.90;;;;;;4377131;32;20125;-74
2021/07/22 11:26:55;;;;;;;5.25;2.95;;;21.50;99.90;;;;;;4384147;32;20592;-73
2021/07/22 11:29:22;;;;;;;3.72;2.72;;;21.40;99.90;;;;;;4362616;32;20101;-69
2021/07/22 11:31:49;;;;;;;3.50;2.65;;;21.20;99.90;;;;;;4372145;32;20063;-74
2021/07/22 11:34:25;;;;;;;3.75;2.50;;;21.20;99.90;;;;;;4358582;32;20101;-73
2021/07/22 11:36:55;;;;;;;5.75;2.67;;;21.60;99.90;;;;;;4381215;32;20090;-73
2021/07/22 11:39:41;;;;;;;3.90;2.53;;;21.50;99.90;;;;;;4378758;32;20074;-75
2021/07/22 11:42:12;;;;;;;3.45;2.60;;;21.70;99.90;;;;;;4377805;32;20170;-74
2021/07/22 11:44:39;;;;;;;5.20;2.72;;;21.50;99.90;;;;;;4364574;32;20181;-72
2021/07/22 11:47:16;;;;;;;3.33;2.55;;;21.50;99.90;;;;;;4368774;32;20105;-76
2021/07/22 11:49:42;;;;;;;3.25;2.90;;;21.80;99.90;;;;;;4371018;32;20204;-73
2021/07/22 11:52:08;;;;;;;3.15;2.45;;;21.50;99.90;;;;;;4372796;32;20476;-65
2021/07/22 11:54:35;;;;;;;5.30;2.85;;;21.70;99.90;;;;;;4373689;32;20097;-70
2021/07/22 11:57:01;;;;;;;5.53;2.50;;;21.70;99.90;;;;;;4375596;32;20081;-66
2021/07/22 11:59:31;;;;;;;4.40;2.90;;;21.70;99.90;;;;;;4372171;32;20158;-69
2021/07/22 12:01:59;;;;;;;4.45;3.00;;;21.70;99.90;;;;;;4353868;32;20074;-71
2021/07/22 12:04:35;;;;;;;3.20;2.45;;;21.60;99.90;;;;;;4365041;32;20081;-72
2021/07/22 12:07:08;;;;;;;2.62;2.22;;;21.20;99.90;;;;;;4341583;32;20085;-71
2021/07/22 12:09:52;;;;;;;3.30;2.70;;;21.20;99.90;;;;;;4348499;32;20131;-68
2021/07/22 12:12:24;;;;;;;4.25;2.60;;;21.10;99.90;;;;;;4358152;32;20094;-70
2021/07/22 12:14:50;;;;;;;3.97;2.65;;;21.20;99.90;;;;;;4354944;32;20073;-71
2021/07/22 12:17:16;;;;;;;4.75;2.62;;;21.60;99.90;;;;;;4351870;32;20753;-68
2021/07/22 12:19:49;;;;;;;3.90;2.62;;;21.40;99.90;;;;;;4349668;32;20149;-73
2021/07/22 12:22:21;;;;;;;3.87;2.47;;;21.50;99.90;;;;;;4360626;32;20585;-74
2021/07/22 12:25:13;;;;;;;4.68;2.70;;;21.30;99.90;;;;;;4369995;32;20078;-70
2021/07/22 12:27:42;;;;;;;3.53;2.60;;;20.40;99.90;;;;;;4362775;32;20528;-72
2021/07/22 12:30:17;;;;;;;4.45;2.78;;;19.90;99.90;;;;;;4349570;32;20070;-69
2021/07/22 12:33:03;;;;;;;4.20;2.83;;;20.30;99.90;;;;;;4349350;32;20074;-73
2021/07/22 12:35:50;;;;;;;4.75;2.92;;;20.40;99.90;;;;;;4338360;32;20093;-72
2021/07/22 12:38:16;;;;;;;6.53;3.30;;;20.30;99.90;;;;;;4330052;32;20075;-73
2021/07/22 12:40:56;;;;;;;5.50;3.55;;;20.40;99.90;;;;;;4376364;32;20456;-69
2021/07/22 12:43:24;;;;;;;6.05;3.97;;;20.40;99.90;;;;;;4351902;32;20108;-73
2021/07/22 12:45:54;;;;;;;5.50;3.60;;;20.60;99.90;;;;;;4333952;32;20078;-72
2021/07/22 12:48:37;;;;;;;5.97;3.40;;;20.70;99.90;;;;;;4342475;32;20106;-72
2021/07/22 12:51:15;;;;;;;6.37;3.25;;;21.30;99.90;;;;;;4348018;32;20106;-76
2021/07/22 12:53:41;;;;;;;6.25;2.85;;;21.40;99.90;;;;;;4361265;32;20598;-78
2021/07/22 12:56:08;;;;;;;4.25;2.90;;;21.20;99.90;;;;;;4360560;32;20517;-77